Time;durP1;ratioP1;P1;durP2;ratioP2;P2;SDS_P1;SDS_P2;PMS_P1;PMS_P2;Temp;Humidity;BMP_temperature;BMP_pressure;BME280_temperature;BME280_humidity;BME280_pressure;Samples;Min_cycle;Max_cycle;Signal;HPM_P1;HPM_P2
2022/05/06 00:02:15;;;;;;;34.70;24.65;;;10.50;99.90;;;;;;5047521;28;20048;-57
2022/05/06 00:04:43;;;;;;;37.42;24.40;;;10.50;99.90;;;;;;5050952;28;20047;-58
2022/05/06 00:07:12;;;;;;;43.80;28.45;;;10.50;99.90;;;;;;5055120;28;20051;-58
2022/05/06 00:09:44;;;;;;;43.08;27.48;;;10.40;99.90;;;;;;5030468;28;20063;-57
2022/05/06 00:12:12;;;;;;;46.55;29.85;;;10.40;99.90;;;;;;5038646;28;20098;-58
2022/05/06 00:14:39;;;;;;;53.75;34.45;;;10.40;99.90;;;;;;5063528;28;20135;-58
2022/05/06 00:17:06;;;;;;;48.33;32.30;;;10.40;99.90;;;;;;5055415;28;20203;-57
2022/05/06 00:19:32;;;;;;;46.00;31.20;;;10.50;99.90;;;;;;5055619;28;20609;-58
2022/05/06 00:21:58;;;;;;;40.78;26.90;;;10.50;99.90;;;;;;5046560;28;20128;-57
2022/05/06 00:24:24;;;;;;;45.20;28.95;;;10.40;99.90;;;;;;5055535;28;20127;-57
2022/05/06 00:26:50;;;;;;;41.75;28.27;;;10.40;99.90;;;;;;5057992;28;20058;-57
2022/05/06 00:29:16;;;;;;;37.42;26.05;;;10.40;99.90;;;;;;5065166;28;20036;-55
2022/05/06 00:31:41;;;;;;;37.70;25.83;;;10.30;99.90;;;;;;5043774;28;20032;-58
2022/05/06 00:34:09;;;;;;;38.38;26.15;;;10.30;99.90;;;;;;5060977;28;20465;-57
2022/05/06 00:36:34;;;;;;;34.58;24.40;;;10.20;99.90;;;;;;5058124;28;20470;-57
2022/05/06 00:39:00;;;;;;;36.42;25.85;;;10.20;99.90;;;;;;5044386;28;20217;-59
2022/05/06 00:41:26;;;;;;;38.38;25.17;;;10.20;99.90;;;;;;5053839;28;20047;-55
2022/05/06 00:43:51;;;;;;;37.42;26.30;;;10.10;99.90;;;;;;5047809;28;20055;-56
2022/05/06 00:46:17;;;;;;;39.63;26.55;;;10.10;99.90;;;;;;5060063;28;20075;-57
2022/05/06 00:48:47;;;;;;;41.03;27.70;;;10.10;99.90;;;;;;5063587;28;20177;-57
2022/05/06 00:51:14;;;;;;;51.38;31.35;;;10.10;99.90;;;;;;5066619;28;20305;-57
2022/05/06 00:53:43;;;;;;;49.47;30.02;;;10.10;99.90;;;;;;5058596;28;20040;-56
2022/05/06 00:56:10;;;;;;;47.42;30.33;;;10.00;99.90;;;;;;5064575;28;20040;-56
2022/05/06 00:58:36;;;;;;;51.47;32.45;;;9.90;99.90;;;;;;5060811;28;20044;-57
2022/05/06 01:01:03;;;;;;;51.47;29.95;;;10.00;99.90;;;;;;5067621;28;20477;-56
2022/05/06 01:03:30;;;;;;;62.08;37.58;;;10.00;99.90;;;;;;5061444;28;20428;-52
2022/05/06 01:05:56;;;;;;;60.75;35.35;;;10.00;99.90;;;;;;5063341;28;20102;-54
2022/05/06 01:08:22;;;;;;;54.60;33.80;;;10.00;99.90;;;;;;5061789;28;20032;-64
2022/05/06 01:10:48;;;;;;;64.97;39.80;;;10.00;99.90;;;;;;5053131;28;20052;-56
2022/05/06 01:13:14;;;;;;;54.10;35.03;;;10.10;99.90;;;;;;5050020;28;20045;-55
2022/05/06 01:15:40;;;;;;;46.67;31.02;;;10.10;99.90;;;;;;5033910;28;20132;-56
2022/05/06 01:18:12;;;;;;;54.25;33.55;;;10.10;99.90;;;;;;5050915;28;20119;-54
2022/05/06 01:20:46;;;;;;;45.17;30.15;;;10.20;99.90;;;;;;5042253;28;20040;-64
2022/05/06 01:23:12;;;;;;;44.75;29.50;;;10.30;99.90;;;;;;5041685;28;20041;-56
2022/05/06 01:25:38;;;;;;;43.65;27.42;;;10.30;99.90;;;;;;5041605;28;20082;-62
2022/05/06 01:28:06;;;;;;;35.80;26.02;;;10.40;99.90;;;;;;5027732;28;20320;-60
2022/05/06 01:30:35;;;;;;;54.80;32.45;;;10.50;99.90;;;;;;5047603;28;20040;-63
2022/05/06 01:33:09;;;;;;;47.85;31.08;;;10.50;99.90;;;;;;5045928;28;20098;-54
2022/05/06 01:35:46;;;;;;;47.40;30.73;;;10.60;99.90;;;;;;5044369;28;20040;-54
2022/05/06 01:38:19;;;;;;;43.45;27.60;;;10.60;99.90;;;;;;5040630;28;20456;-62
2022/05/06 01:40:50;;;;;;;47.53;31.25;;;10.70;99.90;;;;;;5046347;28;20386;-56
2022/05/06 01:43:18;;;;;;;42.40;28.55;;;10.70;99.90;;;;;;5043297;28;20041;-55
2022/05/06 01:45:47;;;;;;;56.60;33.88;;;10.70;99.90;;;;;;5046627;28;20051;-59
2022/05/06 01:48:16;;;;;;;36.70;24.58;;;10.80;99.90;;;;;;5057249;28;20048;-62
2022/05/06 01:50:43;;;;;;;65.35;36.88;;;10.80;99.90;;;;;;5025806;28;20157;-56
2022/05/06 01:53:09;;;;;;;55.35;33.50;;;10.90;99.90;;;;;;5041163;28;20052;-60
2022/05/06 01:55:36;;;;;;;53.47;33.80;;;10.90;99.90;;;;;;5052911;28;20049;-59
2022/05/06 01:58:01;;;;;;;54.95;33.88;;;10.90;99.90;;;;;;5059863;28;20406;-62
2022/05/06 02:00:27;;;;;;;73.85;39.38;;;11.00;99.90;;;;;;5055710;28;20414;-63
2022/05/06 02:02:55;;;;;;;65.20;37.67;;;11.00;99.90;;;;;;5033252;28;20432;-60
2022/05/06 02:05:22;;;;;;;52.53;33.47;;;11.00;99.90;;;;;;5057060;28;20036;-58
2022/05/06 02:07:52;;;;;;;63.15;36.22;;;11.00;99.90;;;;;;5055942;28;20044;-62
2022/05/06 02:10:20;;;;;;;79.10;43.15;;;11.00;99.90;;;;;;5057053;28;20396;-58
2022/05/06 02:12:46;;;;;;;83.68;38.60;;;10.90;99.90;;;;;;5045898;28;20044;-55
2022/05/06 02:15:17;;;;;;;112.22;39.80;;;11.10;99.90;;;;;;5047807;28;20044;-59
2022/05/06 02:17:43;;;;;;;64.30;37.15;;;11.10;99.90;;;;;;5048416;28;20090;-61
2022/05/06 02:20:12;;;;;;;106.15;41.45;;;11.10;99.90;;;;;;5061915;28;20036;-63
2022/05/06 02:22:42;;;;;;;61.25;35.47;;;11.10;99.90;;;;;;5052221;28;20048;-60
2022/05/06 02:25:09;;;;;;;114.93;41.22;;;11.10;99.90;;;;;;5055470;28;20166;-55
2022/05/06 02:27:39;;;;;;;66.13;37.17;;;11.10;99.90;;;;;;5029146;28;20037;-57
2022/05/06 02:35:34;;;;;;;74.05;41.00;;;11.20;99.90;;;;;;5050497;28;20048;-65
2022/05/06 02:38:01;;;;;;;62.83;36.22;;;11.20;99.90;;;;;;5052687;28;20113;-62
2022/05/06 02:40:27;;;;;;;69.75;40.83;;;11.30;99.90;;;;;;5056770;28;20040;-65
2022/05/06 02:42:53;;;;;;;72.68;38.38;;;11.30;99.90;;;;;;5032818;28;20047;-58
2022/05/06 02:45:18;;;;;;;56.13;33.45;;;11.30;99.90;;;;;;5051557;28;20040;-55
2022/05/06 02:47:45;;;;;;;74.63;39.55;;;11.30;99.90;;;;;;5060311;28;20134;-52
2022/05/06 02:50:10;;;;;;;74.05;38.65;;;11.30;99.90;;;;;;5014457;28;20048;-57
2022/05/06 02:52:36;;;;;;;84.93;45.08;;;11.30;99.90;;;;;;5042715;28;21033;-53
2022/05/06 02:55:02;;;;;;;105.05;45.88;;;11.30;99.90;;;;;;5042025;28;20285;-54
2022/05/06 02:57:28;;;;;;;80.68;40.28;;;11.30;99.90;;;;;;5043986;28;20416;-54
2022/05/06 02:59:54;;;;;;;91.47;45.15;;;11.30;99.90;;;;;;5046666;28;20041;-62
2022/05/06 03:02:20;;;;;;;72.60;39.95;;;11.30;99.90;;;;;;5055864;28;20052;-54
2022/05/06 03:04:46;;;;;;;130.10;49.92;;;11.30;99.90;;;;;;5052252;28;20036;-59
2022/05/06 03:07:12;;;;;;;74.90;39.90;;;11.30;99.90;;;;;;5053416;28;20033;-56
2022/05/06 03:09:40;;;;;;;73.10;39.72;;;11.30;99.90;;;;;;5042989;28;20537;-65
2022/05/06 03:12:07;;;;;;;82.95;44.47;;;11.30;99.90;;;;;;5058621;28;20044;-53
2022/05/06 03:14:33;;;;;;;74.90;42.15;;;11.30;99.90;;;;;;5044387;28;20258;-54
2022/05/06 03:16:59;;;;;;;72.28;40.05;;;11.30;99.90;;;;;;5050239;28;20562;-54
2022/05/06 03:19:25;;;;;;;76.65;41.00;;;11.40;99.90;;;;;;5046633;28;20230;-62
2022/05/06 03:21:54;;;;;;;69.97;39.58;;;11.40;99.90;;;;;;5039219;28;20130;-60
2022/05/06 03:24:20;;;;;;;72.00;41.65;;;11.40;99.90;;;;;;5047697;28;20399;-65
2022/05/06 03:26:46;;;;;;;111.68;39.80;;;11.40;99.90;;;;;;5043912;28;20924;-56
2022/05/06 03:29:12;;;;;;;69.85;36.97;;;11.40;99.90;;;;;;5025818;28;20087;-63
2022/05/06 03:31:38;;;;;;;79.95;38.38;;;11.30;99.90;;;;;;5051886;28;20063;-62
2022/05/06 03:34:05;;;;;;;80.93;37.33;;;11.30;99.90;;;;;;5044515;28;20041;-62
2022/05/06 03:36:32;;;;;;;76.53;39.00;;;11.40;99.90;;;;;;5049315;28;20045;-60
2022/05/06 03:38:58;;;;;;;75.75;39.03;;;11.30;99.90;;;;;;5053388;28;20513;-53
2022/05/06 03:41:24;;;;;;;72.75;34.97;;;11.30;99.90;;;;;;5051436;28;20045;-59
2022/05/06 03:43:49;;;;;;;70.38;35.30;;;11.30;99.90;;;;;;5046877;28;20115;-58
2022/05/06 03:46:15;;;;;;;85.85;36.75;;;11.30;99.90;;;;;;5050812;28;20039;-59
2022/05/06 03:48:41;;;;;;;148.40;36.40;;;11.30;99.90;;;;;;5039638;28;20196;-56
2022/05/06 03:51:22;;;;;;;100.70;37.20;;;11.20;99.90;;;;;;5042820;28;20056;-56
2022/05/06 03:53:53;;;;;;;65.63;35.30;;;11.20;99.90;;;;;;5046543;28;20052;-60
2022/05/06 03:56:22;;;;;;;63.88;34.22;;;11.20;99.90;;;;;;5043075;28;20404;-53
2022/05/06 03:58:48;;;;;;;74.70;33.20;;;11.20;99.90;;;;;;5032845;28;20041;-64
2022/05/06 04:01:16;;;;;;;107.63;33.85;;;11.20;99.90;;;;;;5061075;28;20131;-60
2022/05/06 04:03:41;;;;;;;122.47;33.75;;;11.20;99.90;;;;;;5049290;28;20037;-64
2022/05/06 04:06:08;;;;;;;123.60;33.08;;;11.10;99.90;;;;;;5037939;28;20041;-59
2022/05/06 04:08:33;;;;;;;88.03;34.08;;;11.10;99.90;;;;;;5052249;28;20049;-60
2022/05/06 04:10:59;;;;;;;66.10;26.85;;;11.10;99.90;;;;;;5040047;28;20488;-54
2022/05/06 04:13:25;;;;;;;96.10;31.75;;;11.10;99.90;;;;;;5037498;28;20086;-55
2022/05/06 04:15:51;;;;;;;99.22;33.45;;;11.10;99.90;;;;;;5044463;28;20048;-56
2022/05/06 04:18:17;;;;;;;158.70;33.25;;;11.10;99.90;;;;;;5044922;28;20048;-58
2022/05/06 04:23:32;;;;;;;131.93;32.50;;;11.10;99.90;;;;;;5027192;28;20056;-63
2022/05/06 04:26:03;;;;;;;132.27;30.50;;;10.90;99.90;;;;;;5038542;28;20437;-63
2022/05/06 04:28:29;;;;;;;57.40;25.85;;;10.90;99.90;;;;;;5043037;28;20067;-63
2022/05/06 04:30:56;;;;;;;75.68;26.45;;;10.80;99.90;;;;;;5021207;28;20045;-58
2022/05/06 04:33:26;;;;;;;55.00;24.58;;;10.80;99.90;;;;;;5042815;28;20052;-62
2022/05/06 04:35:53;;;;;;;85.53;22.88;;;10.80;99.90;;;;;;5037168;28;20037;-54
2022/05/06 04:38:19;;;;;;;49.92;20.17;;;10.70;99.90;;;;;;5046398;28;20505;-54
2022/05/06 04:40:45;;;;;;;31.83;16.65;;;10.60;99.90;;;;;;5033131;28;20063;-57
2022/05/06 04:43:12;;;;;;;50.22;15.40;;;10.60;99.90;;;;;;5045854;28;20128;-55
2022/05/06 04:45:43;;;;;;;52.65;13.85;;;10.50;99.90;;;;;;5042829;28;20045;-53
2022/05/06 04:48:11;;;;;;;26.85;12.48;;;10.40;99.90;;;;;;5031484;28;20044;-56
2022/05/06 04:50:41;;;;;;;52.00;13.55;;;10.40;99.90;;;;;;5017489;28;20041;-59
2022/05/06 04:53:08;;;;;;;20.75;12.43;;;10.40;99.90;;;;;;5041811;28;20036;-54
2022/05/06 04:55:39;;;;;;;21.85;12.02;;;10.40;99.90;;;;;;5047004;28;20345;-61
2022/05/06 04:58:06;;;;;;;17.13;11.23;;;10.50;99.90;;;;;;5055930;28;20090;-57
2022/05/06 05:00:32;;;;;;;16.13;10.57;;;10.50;99.90;;;;;;5049818;28;21868;-55
2022/05/06 05:02:59;;;;;;;28.17;11.30;;;10.50;99.90;;;;;;5052692;28;20175;-52
2022/05/06 05:05:25;;;;;;;29.88;12.45;;;10.50;99.90;;;;;;5053072;28;20036;-53
2022/05/06 05:07:53;;;;;;;14.88;11.20;;;10.50;99.90;;;;;;5032871;28;20053;-60
2022/05/06 05:10:19;;;;;;;30.42;11.13;;;10.50;99.90;;;;;;5055171;28;20052;-57
2022/05/06 05:12:44;;;;;;;15.52;10.35;;;10.60;99.90;;;;;;5053047;28;20048;-60
2022/05/06 05:15:11;;;;;;;16.88;10.05;;;10.60;99.90;;;;;;5050355;28;20049;-59
2022/05/06 05:17:37;;;;;;;12.60;9.25;;;10.60;99.90;;;;;;5046345;28;20049;-55
2022/05/06 05:20:04;;;;;;;27.08;9.45;;;10.60;99.90;;;;;;5046865;28;20064;-62
2022/05/06 05:22:31;;;;;;;19.83;10.20;;;10.70;99.90;;;;;;5056677;28;20041;-52
2022/05/06 05:24:57;;;;;;;11.82;8.75;;;10.60;99.90;;;;;;5044667;28;20222;-58
2022/05/06 05:27:23;;;;;;;12.63;9.18;;;10.60;99.90;;;;;;5042441;28;20036;-62
2022/05/06 05:29:49;;;;;;;14.57;9.52;;;10.70;99.90;;;;;;5052639;28;20105;-62
2022/05/06 05:32:15;;;;;;;20.98;9.57;;;10.70;99.90;;;;;;5045458;28;20046;-59
2022/05/06 05:34:42;;;;;;;26.25;9.18;;;10.80;99.90;;;;;;5041283;28;20075;-57
2022/05/06 05:37:09;;;;;;;12.50;8.98;;;10.90;99.90;;;;;;5056849;28;20148;-54
2022/05/06 05:39:35;;;;;;;14.05;8.60;;;10.90;99.90;;;;;;5057056;28;20074;-56
2022/05/06 05:42:03;;;;;;;14.80;8.50;;;10.90;99.90;;;;;;5018099;28;20482;-57
2022/05/06 05:49:58;;;;;;;18.00;9.05;;;11.00;99.90;;;;;;5051147;28;20048;-54
2022/05/06 05:52:24;;;;;;;15.00;9.32;;;11.10;99.90;;;;;;5033553;28;20041;-53
2022/05/06 05:54:50;;;;;;;13.15;8.77;;;11.10;99.90;;;;;;5058552;28;20036;-61
2022/05/06 05:57:15;;;;;;;11.52;8.15;;;11.10;99.90;;;;;;5040577;28;20546;-56
2022/05/06 05:59:41;;;;;;;12.18;8.73;;;11.20;99.90;;;;;;5054284;28;20040;-59
2022/05/06 06:02:08;;;;;;;13.23;8.85;;;11.20;99.90;;;;;;5057195;28;20037;-63
2022/05/06 06:04:34;;;;;;;10.50;7.70;;;11.30;99.90;;;;;;5028432;28;20048;-55
2022/05/06 06:07:00;;;;;;;12.63;8.85;;;11.40;99.90;;;;;;5053861;28;20048;-60
2022/05/06 06:09:27;;;;;;;12.18;8.13;;;11.40;99.90;;;;;;5057726;28;20037;-62
2022/05/06 06:11:53;;;;;;;10.65;8.45;;;11.50;99.90;;;;;;5059331;28;20041;-57
2022/05/06 06:14:19;;;;;;;11.32;8.35;;;11.50;99.90;;;;;;5047112;28;20041;-54
2022/05/06 06:16:45;;;;;;;12.45;8.88;;;11.50;99.90;;;;;;5048310;28;20523;-65
2022/05/06 06:19:11;;;;;;;12.75;8.40;;;11.60;99.90;;;;;;5038971;28;20041;-63
2022/05/06 06:21:37;;;;;;;16.70;9.27;;;11.50;99.90;;;;;;5037664;28;20036;-62
2022/05/06 06:24:03;;;;;;;13.77;9.20;;;11.50;99.90;;;;;;5053472;28;20479;-58
2022/05/06 06:26:29;;;;;;;13.82;9.98;;;11.50;99.90;;;;;;5052351;28;20492;-58
2022/05/06 06:28:55;;;;;;;12.45;9.10;;;11.50;99.90;;;;;;5051491;28;20048;-60
2022/05/06 06:31:21;;;;;;;12.15;9.27;;;11.50;99.90;;;;;;5015415;28;20040;-57
2022/05/06 06:33:47;;;;;;;18.63;12.02;;;11.50;99.90;;;;;;5057255;28;20048;-59
2022/05/06 06:36:13;;;;;;;14.95;10.00;;;11.50;99.90;;;;;;5051139;28;20040;-60
2022/05/06 06:38:39;;;;;;;21.58;11.55;;;11.40;99.90;;;;;;5033621;28;20061;-57
2022/05/06 06:41:05;;;;;;;17.67;10.57;;;11.40;99.90;;;;;;5043669;28;20076;-58
2022/05/06 06:43:31;;;;;;;20.77;11.80;;;11.40;99.90;;;;;;5053266;28;20044;-56
2022/05/06 06:45:57;;;;;;;14.20;10.70;;;11.40;99.90;;;;;;5050088;28;20075;-56
2022/05/06 06:48:24;;;;;;;15.30;11.57;;;11.50;99.90;;;;;;5050646;28;20135;-60
2022/05/06 06:50:52;;;;;;;14.80;11.00;;;11.60;99.90;;;;;;5045502;28;20132;-54
2022/05/06 06:53:19;;;;;;;16.55;11.43;;;11.60;99.90;;;;;;5064003;28;20418;-53
2022/05/06 06:55:45;;;;;;;17.02;11.70;;;11.60;99.90;;;;;;5055534;28;20417;-61
2022/05/06 06:58:10;;;;;;;17.40;12.25;;;11.70;99.90;;;;;;5053470;28;20064;-59
2022/05/06 07:00:37;;;;;;;18.40;12.98;;;11.70;99.90;;;;;;5055293;28;20555;-52
2022/05/06 07:03:03;;;;;;;17.08;12.98;;;11.80;99.90;;;;;;5050557;28;20274;-66
2022/05/06 07:05:29;;;;;;;18.35;14.07;;;11.80;99.90;;;;;;5046774;28;20036;-54
2022/05/06 07:13:23;;;;;;;19.27;13.52;;;11.90;99.90;;;;;;5044151;28;20071;-58
2022/05/06 07:15:49;;;;;;;17.58;12.98;;;11.90;99.90;;;;;;5033163;28;20479;-58
2022/05/06 07:18:15;;;;;;;15.95;12.77;;;12.00;99.90;;;;;;5056050;28;20372;-55
2022/05/06 07:20:42;;;;;;;16.85;13.27;;;12.00;99.90;;;;;;5074772;22;20109;-56
2022/05/06 07:23:09;;;;;;;15.35;12.63;;;12.10;99.90;;;;;;5073899;28;20055;-59
2022/05/06 07:25:34;;;;;;;15.63;12.63;;;12.20;99.90;;;;;;5073736;28;20449;-55
2022/05/06 07:28:00;;;;;;;17.15;14.00;;;12.40;99.90;;;;;;5061276;28;20107;-59
2022/05/06 07:30:26;;;;;;;15.02;11.65;;;12.50;99.90;;;;;;5059901;28;20190;-55
2022/05/06 07:32:51;;;;;;;14.45;11.35;;;12.50;99.90;;;;;;5054437;28;20040;-55
2022/05/06 07:35:17;;;;;;;15.52;12.32;;;12.60;99.90;;;;;;5030120;28;20060;-59
2022/05/06 07:37:43;;;;;;;14.20;11.75;;;12.50;99.90;;;;;;5034904;28;20044;-54
2022/05/06 07:40:10;;;;;;;14.85;12.38;;;12.70;99.90;;;;;;5057134;28;20142;-56
2022/05/06 07:42:37;;;;;;;13.68;10.75;;;12.80;99.90;;;;;;5038386;28;20052;-59
2022/05/06 07:45:04;;;;;;;14.98;11.75;;;12.90;99.90;;;;;;5041921;28;20066;-55
2022/05/06 07:47:30;;;;;;;17.70;12.10;;;13.00;99.90;;;;;;5053312;28;20032;-58
2022/05/06 07:49:56;;;;;;;13.50;11.02;;;13.00;99.90;;;;;;5033541;28;20498;-56
2022/05/06 07:52:22;;;;;;;13.73;11.80;;;13.10;99.90;;;;;;5041571;28;21650;-53
2022/05/06 07:54:48;;;;;;;13.68;11.38;;;13.20;99.90;;;;;;5044827;28;20044;-57
2022/05/06 07:57:13;;;;;;;12.95;11.18;;;13.30;99.90;;;;;;5049172;28;20045;-59
2022/05/06 07:59:39;;;;;;;13.05;11.23;;;13.30;99.90;;;;;;5048188;28;20097;-57
2022/05/06 08:04:50;;;;;;;13.68;11.35;;;13.50;99.90;;;;;;5068118;28;20048;-57
2022/05/06 08:07:16;;;;;;;13.57;11.20;;;13.50;99.90;;;;;;5055868;28;20048;-58
2022/05/06 08:09:42;;;;;;;14.00;10.77;;;13.60;99.90;;;;;;5027828;28;20040;-59
2022/05/06 08:12:09;;;;;;;12.88;11.43;;;13.60;99.90;;;;;;5053192;28;20040;-58
2022/05/06 08:14:35;;;;;;;12.20;10.48;;;13.60;99.90;;;;;;5051155;28;20067;-57
2022/05/06 08:17:02;;;;;;;13.13;10.93;;;13.60;99.90;;;;;;5057727;28;20045;-58
2022/05/06 08:19:28;;;;;;;13.13;10.15;;;13.80;99.90;;;;;;5053660;28;20132;-59
2022/05/06 08:21:54;;;;;;;12.40;9.88;;;13.90;99.90;;;;;;5072915;28;20029;-58
2022/05/06 08:24:21;;;;;;;10.48;9.27;;;14.00;99.90;;;;;;5055288;28;20478;-58
2022/05/06 08:26:47;;;;;;;10.75;9.13;;;14.10;99.90;;;;;;5043000;28;20041;-59
2022/05/06 08:29:13;;;;;;;12.68;10.23;;;14.30;99.90;;;;;;5055330;28;20167;-58
2022/05/06 08:31:40;;;;;;;10.18;8.38;;;14.40;99.90;;;;;;5057737;28;20048;-54
2022/05/06 08:34:10;;;;;;;9.63;8.13;;;14.50;99.90;;;;;;5063927;28;20044;-56
2022/05/06 08:36:37;;;;;;;9.88;7.68;;;14.60;99.90;;;;;;5057652;28;20090;-56
2022/05/06 08:39:05;;;;;;;9.43;8.15;;;14.60;99.90;;;;;;5060890;28;20040;-55
2022/05/06 08:41:31;;;;;;;8.68;7.43;;;14.70;99.90;;;;;;5041574;28;20642;-57
2022/05/06 08:50:50;;;;;;;8.77;7.47;;;14.90;99.90;;;;;;5059591;28;20475;-57
2022/05/06 08:52:19;;;;;;;8.25;6.80;;;15.20;99.90;;;;;;5050280;28;20510;-57
2022/05/06 08:54:46;;;;;;;7.55;6.45;;;15.40;99.90;;;;;;5060312;28;20044;-57
2022/05/06 08:57:12;;;;;;;7.60;6.78;;;15.30;99.90;;;;;;5037934;28;20411;-56
2022/05/06 08:59:38;;;;;;;6.88;6.15;;;15.30;99.90;;;;;;5037463;28;20048;-58
2022/05/06 09:02:04;;;;;;;6.78;6.00;;;15.50;99.90;;;;;;5059399;28;20047;-58
2022/05/06 09:04:30;;;;;;;8.00;6.43;;;15.80;99.90;;;;;;5054080;28;20049;-55
2022/05/06 09:07:19;;;;;;;7.63;6.82;;;16.00;99.90;;;;;;5055132;28;20068;-56
2022/05/06 09:10:16;;;;;;;8.95;6.43;;;16.00;99.90;;;;;;5049102;28;20701;-57
2022/05/06 09:12:46;;;;;;;7.93;6.40;;;16.10;99.90;;;;;;5059048;28;20050;-56
2022/05/06 09:18:02;;;;;;;6.35;5.75;;;16.30;99.90;;;;;;5051227;28;20040;-57
2022/05/06 09:20:28;;;;;;;6.93;6.20;;;16.40;99.90;;;;;;5054985;28;20032;-58
2022/05/06 09:22:55;;;;;;;6.05;5.20;;;16.50;99.90;;;;;;5058139;28;20487;-58
2022/05/06 09:25:37;;;;;;;5.97;5.10;;;16.60;99.90;;;;;;5060115;28;20051;-58
2022/05/06 09:28:04;;;;;;;5.53;5.00;;;16.70;99.90;;;;;;5052742;28;20497;-56
2022/05/06 09:30:29;;;;;;;5.53;4.57;;;16.70;99.90;;;;;;5065867;28;20051;-57
2022/05/06 09:32:55;;;;;;;5.45;4.45;;;16.70;99.90;;;;;;5066086;28;20040;-58
2022/05/06 09:35:26;;;;;;;5.00;4.50;;;16.70;99.90;;;;;;5080108;28;20275;-59
2022/05/06 09:37:52;;;;;;;5.00;4.40;;;16.60;99.90;;;;;;5049349;28;20044;-58
2022/05/06 09:40:19;;;;;;;6.05;4.80;;;16.70;99.90;;;;;;5065394;28;20109;-59
2022/05/06 09:42:54;;;;;;;4.68;3.95;;;16.80;99.90;;;;;;5066991;28;20064;-58
2022/05/06 09:45:37;;;;;;;4.72;3.55;;;16.90;99.90;;;;;;5065363;28;20045;-58
2022/05/06 09:48:04;;;;;;;4.93;3.65;;;17.20;99.90;;;;;;5063988;28;20037;-59
2022/05/06 09:50:48;;;;;;;4.13;3.60;;;17.30;99.90;;;;;;5063194;28;20167;-59
2022/05/06 09:53:15;;;;;;;;;;;17.40;99.90;;;;;;5041267;28;20526;-58
2022/05/06 09:55:46;;;;;;;5.63;4.35;;;17.60;99.90;;;;;;5063528;28;20012;-57
2022/05/06 09:58:16;;;;;;;5.50;4.40;;;17.60;99.90;;;;;;5064622;28;20044;-58
2022/05/06 10:00:43;;;;;;;3.83;3.30;;;17.70;99.90;;;;;;5061526;28;21241;-58
2022/05/06 10:03:09;;;;;;;4.30;3.70;;;17.70;99.50;;;;;;5061852;28;20572;-58
2022/05/06 10:05:37;;;;;;;5.13;3.70;;;17.80;99.40;;;;;;5063804;28;20510;-56
2022/05/06 10:08:12;;;;;;;4.32;3.50;;;17.90;99.90;;;;;;5037852;28;20126;-58
2022/05/06 10:10:56;;;;;;;6.13;4.07;;;18.10;99.90;;;;;;5039691;28;20083;-58
2022/05/06 10:13:23;;;;;;;6.65;4.43;;;18.30;99.90;;;;;;5059961;28;20052;-57
2022/05/06 10:15:54;;;;;;;4.93;4.05;;;18.50;99.90;;;;;;5053245;28;20278;-57
2022/05/06 10:18:33;;;;;;;4.57;3.90;;;18.70;99.30;;;;;;5043739;28;20060;-57
2022/05/06 10:21:00;;;;;;;4.75;4.25;;;18.70;98.60;;;;;;5058137;28;20048;-58
2022/05/06 10:23:43;;;;;;;4.57;4.05;;;18.60;98.40;;;;;;5032969;28;20160;-58
2022/05/06 10:26:09;;;;;;;4.75;4.13;;;18.50;98.20;;;;;;5047063;28;20504;-58
2022/05/06 10:34:14;;;;;;;4.72;4.20;;;18.90;97.80;;;;;;5053016;28;20299;-58
2022/05/06 10:36:51;;;;;;;6.50;5.40;;;18.80;97.80;;;;;;5053853;28;20053;-57
2022/05/06 10:39:23;;;;;;;6.13;4.70;;;18.80;97.50;;;;;;5051351;28;20038;-55
2022/05/06 10:42:01;;;;;;;5.72;4.68;;;19.00;98.50;;;;;;5048943;28;20051;-58
2022/05/06 10:44:44;;;;;;;7.95;5.47;;;19.10;97.90;;;;;;5065390;28;20066;-58
2022/05/06 10:47:12;;;;;;;8.70;5.63;;;18.90;95.90;;;;;;5057125;28;20055;-57
2022/05/06 10:49:38;;;;;;;7.20;6.05;;;18.90;97.30;;;;;;5055174;28;20051;-58
2022/05/06 10:52:20;;;;;;;7.35;5.53;;;19.00;96.90;;;;;;5053193;28;20405;-58
2022/05/06 10:54:54;;;;;;;7.82;5.35;;;19.00;94.70;;;;;;5054540;28;20050;-55
2022/05/06 10:57:22;;;;;;;9.23;5.53;;;18.90;94.90;;;;;;5056745;28;21129;-60
2022/05/06 10:59:49;;;;;;;9.27;6.13;;;18.90;94.10;;;;;;5045830;28;20028;-60
2022/05/06 11:02:16;;;;;;;7.35;6.65;;;18.90;93.90;;;;;;5056174;28;20173;-57
2022/05/06 11:04:52;;;;;;;8.65;7.03;;;18.90;94.30;;;;;;5060541;28;20048;-57
2022/05/06 11:07:18;;;;;;;8.23;6.07;;;19.10;95.30;;;;;;5056426;28;20105;-58
2022/05/06 11:09:44;;;;;;;7.53;6.38;;;19.30;94.50;;;;;;5060843;28;20041;-62
2022/05/06 11:12:11;;;;;;;7.85;5.57;;;19.40;94.40;;;;;;5040342;28;20304;-61
2022/05/06 11:14:36;;;;;;;7.40;5.60;;;19.50;94.10;;;;;;5059604;28;20137;-59
2022/05/06 11:17:18;;;;;;;6.82;5.82;;;19.30;93.60;;;;;;5057590;28;20040;-58
2022/05/06 11:19:44;;;;;;;11.05;6.45;;;19.40;93.60;;;;;;5058588;28;20518;-57
2022/05/06 11:22:11;;;;;;;9.23;6.20;;;19.40;93.90;;;;;;5042735;28;20093;-62
2022/05/06 11:24:37;;;;;;;7.72;5.55;;;19.60;94.20;;;;;;5042821;28;20075;-60
2022/05/06 11:27:19;;;;;;;8.70;5.60;;;20.10;93.30;;;;;;5059018;28;20072;-57
2022/05/06 11:29:59;;;;;;;8.65;5.20;;;20.50;92.30;;;;;;5059769;28;20048;-57
2022/05/06 11:32:28;;;;;;;6.13;5.53;;;20.20;92.20;;;;;;5056526;28;20052;-61
2022/05/06 11:35:10;;;;;;;6.18;4.95;;;20.10;92.00;;;;;;5048049;28;20098;-59
2022/05/06 11:37:40;;;;;;;6.05;5.43;;;20.10;91.60;;;;;;5043601;28;20126;-58
2022/05/06 11:40:32;;;;;;;6.38;5.60;;;20.10;91.80;;;;;;5055124;28;20303;-58
2022/05/06 11:43:19;;;;;;;5.95;5.05;;;19.90;91.90;;;;;;5056337;28;20610;-57
2022/05/06 11:48:44;;;;;;;5.55;3.60;;;20.10;90.20;;;;;;5050312;28;20066;-58
2022/05/06 11:51:12;;;;;;;6.75;3.17;;;19.40;85.80;;;;;;5059152;28;20033;-57
2022/05/06 11:53:40;;;;;;;5.40;3.63;;;19.60;89.60;;;;;;5061862;28;20469;-57
2022/05/06 11:56:07;;;;;;;6.43;4.00;;;19.60;88.80;;;;;;5060868;28;20032;-63
2022/05/06 11:58:34;;;;;;;7.35;4.18;;;19.90;90.20;;;;;;5058599;28;20395;-57
2022/05/06 12:01:00;;;;;;;6.72;4.90;;;19.90;90.00;;;;;;5043202;28;20127;-57
2022/05/06 12:03:26;;;;;;;8.35;5.82;;;20.00;89.70;;;;;;5063826;28;20451;-60
2022/05/06 12:06:07;;;;;;;7.18;5.28;;;19.90;87.90;;;;;;5050644;28;20131;-58
2022/05/06 12:08:35;;;;;;;6.25;5.45;;;20.20;90.10;;;;;;5059041;28;20371;-61
2022/05/06 12:11:06;;;;;;;9.52;5.38;;;20.20;87.60;;;;;;5061243;28;20510;-57
2022/05/06 12:13:40;;;;;;;7.47;6.57;;;20.20;89.40;;;;;;5061776;28;20056;-58
2022/05/06 12:16:10;;;;;;;11.02;7.85;;;20.10;88.80;;;;;;5059231;28;20041;-58
2022/05/06 12:18:37;;;;;;;8.82;6.57;;;20.10;88.10;;;;;;5046057;28;20055;-62
2022/05/06 12:21:24;;;;;;;8.00;6.80;;;20.30;90.30;;;;;;5045249;28;20053;-57
2022/05/06 12:23:59;;;;;;;9.35;8.45;;;20.70;90.40;;;;;;5064575;28;20025;-58
2022/05/06 12:26:32;;;;;;;12.25;7.80;;;21.10;89.70;;;;;;5061924;28;20071;-62
2022/05/06 12:28:59;;;;;;;9.02;8.07;;;21.50;90.10;;;;;;5062018;28;20192;-60
2022/05/06 12:31:27;;;;;;;11.88;9.23;;;21.60;85.90;;;;;;5062786;28;20052;-54
2022/05/06 12:34:00;;;;;;;12.80;9.20;;;21.50;86.30;;;;;;5066462;28;20068;-58
2022/05/06 12:36:26;;;;;;;;;;;21.50;86.10;;;;;;5053009;28;20594;-58
2022/05/06 12:38:51;;;;;;;11.82;8.20;;;21.50;85.60;;;;;;5052683;28;19924;-66
2022/05/06 12:41:22;;;;;;;9.07;7.45;;;21.30;85.70;;;;;;5063447;28;20091;-56
2022/05/06 12:43:50;;;;;;;11.25;8.23;;;21.30;87.00;;;;;;5061606;28;20109;-62
2022/05/06 12:46:28;;;;;;;9.40;7.70;;;21.50;87.00;;;;;;5077421;28;20040;-58
2022/05/06 12:51:41;;;;;;;9.55;8.55;;;21.00;81.70;;;;;;5073503;28;20139;-55
2022/05/06 12:54:07;;;;;;;11.15;8.70;;;20.80;85.90;;;;;;5045809;28;20052;-64
2022/05/06 12:56:34;;;;;;;11.50;8.52;;;21.10;87.70;;;;;;5044326;28;20062;-60
2022/05/06 12:59:00;;;;;;;13.35;9.95;;;21.50;87.60;;;;;;5058949;28;20049;-66
2022/05/06 13:01:25;;;;;;;12.13;10.00;;;21.80;85.50;;;;;;5056283;28;20067;-63
2022/05/06 13:06:20;;;;;;;14.00;10.88;;;22.30;83.50;;;;;;5085488;27;20339;-63
2022/05/06 13:08:54;;;;;;;14.02;11.40;;;22.40;82.30;;;;;;5078155;28;20502;-63
2022/05/06 13:11:20;;;;;;;15.75;11.45;;;22.20;81.20;;;;;;5070456;28;20121;-66
2022/05/06 13:13:46;;;;;;;13.02;10.13;;;22.00;81.50;;;;;;5077724;28;20043;-68
2022/05/06 13:16:12;;;;;;;11.50;9.95;;;22.10;82.30;;;;;;5059756;28;20617;-63
2022/05/06 13:18:39;;;;;;;11.45;10.05;;;21.90;81.40;;;;;;5061188;28;20048;-65
2022/05/06 13:22:09;;;;;;;13.40;10.43;;;21.30;75.10;;;;;;5096859;27;20839;-63
2022/05/06 13:24:35;;;;;;;13.13;8.68;;;21.10;77.50;;;;;;5071137;28;20032;-63